Time;durP1;ratioP1;P1;durP2;ratioP2;P2;SDS_P1;SDS_P2;PMS_P1;PMS_P2;Temp;Humidity;BMP_temperature;BMP_pressure;BME280_temperature;BME280_humidity;BME280_pressure;Samples;Min_cycle;Max_cycle;Signal;HPM_P1;HPM_P2
2023/04/27 00:01:11;;;;;;;23.90;20.85;;;0.70;99.90;;;;;;5008881;28;20122;-75
2023/04/27 00:03:38;;;;;;;23.92;20.48;;;0.70;99.90;;;;;;5010096;28;20139;-75
2023/04/27 00:06:06;;;;;;;23.55;20.98;;;0.60;99.90;;;;;;5010121;28;20541;-75
2023/04/27 00:08:33;;;;;;;29.65;21.25;;;0.60;99.90;;;;;;4994890;28;20136;-76
2023/04/27 00:11:00;;;;;;;24.17;21.50;;;0.60;99.90;;;;;;5005280;28;20503;-75
2023/04/27 00:13:26;;;;;;;36.25;23.00;;;0.60;99.90;;;;;;5013912;28;20450;-76
2023/04/27 00:15:53;;;;;;;32.85;23.40;;;0.70;99.90;;;;;;4995398;28;20052;-75
2023/04/27 00:18:20;;;;;;;24.83;22.38;;;0.60;99.90;;;;;;5018914;28;20107;-75
2023/04/27 00:20:47;;;;;;;29.85;24.33;;;0.60;99.90;;;;;;5014188;28;20128;-76
2023/04/27 00:23:13;;;;;;;34.40;24.20;;;0.50;99.90;;;;;;5000202;28;20045;-75
2023/04/27 00:25:40;;;;;;;28.50;23.52;;;0.40;99.90;;;;;;4999880;28;20034;-75
2023/04/27 00:28:07;;;;;;;25.20;22.75;;;0.30;99.90;;;;;;4995038;28;20045;-75
2023/04/27 00:30:34;;;;;;;28.65;22.90;;;0.20;99.90;;;;;;5011904;28;20530;-75
2023/04/27 00:33:01;;;;;;;25.27;22.67;;;0.20;99.90;;;;;;5014474;28;20096;-75
2023/04/27 00:35:28;;;;;;;28.02;23.40;;;0.10;99.90;;;;;;4985881;28;20055;-76
2023/04/27 00:37:56;;;;;;;28.25;23.13;;;0.10;99.90;;;;;;5015452;28;20817;-75
2023/04/27 00:40:24;;;;;;;28.42;23.63;;;0.00;99.90;;;;;;5008295;28;20045;-76
2023/04/27 00:42:51;;;;;;;32.58;23.40;;;0.10;99.90;;;;;;5020604;28;20655;-75
2023/04/27 00:45:18;;;;;;;28.55;22.95;;;0.00;99.90;;;;;;5023136;28;20075;-75
2023/04/27 00:47:45;;;;;;;25.25;22.50;;;0.10;99.90;;;;;;5006822;28;20052;-75
2023/04/27 00:50:11;;;;;;;28.77;23.55;;;0.00;99.90;;;;;;4996177;28;20083;-76
2023/04/27 00:52:39;;;;;;;33.35;23.38;;;0.00;99.90;;;;;;5007286;28;20290;-75
2023/04/27 00:55:08;;;;;;;28.10;22.65;;;0.20;99.90;;;;;;5011170;28;20049;-76
2023/04/27 00:57:35;;;;;;;29.98;24.52;;;0.20;99.90;;;;;;5005041;28;20045;-75
2023/04/27 01:00:06;;;;;;;31.05;24.60;;;0.20;99.90;;;;;;5013533;28;20534;-75
2023/04/27 01:02:34;;;;;;;29.98;23.77;;;0.10;99.90;;;;;;4998245;28;20146;-75
2023/04/27 01:05:02;;;;;;;26.08;22.70;;;0.30;99.90;;;;;;5006801;28;20050;-75
2023/04/27 01:07:29;;;;;;;32.10;23.75;;;0.20;99.90;;;;;;5008372;28;20041;-76
2023/04/27 01:09:57;;;;;;;29.25;23.08;;;0.20;99.90;;;;;;5011997;28;20049;-75
2023/04/27 01:12:24;;;;;;;32.10;22.95;;;0.20;99.90;;;;;;5011309;28;20069;-75
2023/04/27 01:14:50;;;;;;;32.80;23.33;;;0.30;99.90;;;;;;5010563;28;20054;-75
2023/04/27 01:17:17;;;;;;;31.30;23.33;;;0.10;99.90;;;;;;4998322;28;20038;-76
2023/04/27 01:19:44;;;;;;;40.00;24.35;;;0.10;99.90;;;;;;5019660;28;20060;-75
2023/04/27 01:22:10;;;;;;;29.27;23.40;;;-0.10;99.90;;;;;;5009797;28;20047;-75
2023/04/27 01:24:37;;;;;;;34.75;23.60;;;-0.20;99.90;;;;;;5018128;28;20127;-76
2023/04/27 01:27:04;;;;;;;35.13;24.40;;;-0.30;99.90;;;;;;4992214;28;20542;-75
2023/04/27 01:29:31;;;;;;;31.17;23.55;;;-0.30;99.90;;;;;;5009505;28;20116;-76
2023/04/27 01:31:58;;;;;;;28.58;22.85;;;-0.40;99.90;;;;;;4999125;28;20136;-75
2023/04/27 01:34:24;;;;;;;33.45;23.85;;;-0.40;99.90;;;;;;5007956;28;20072;-75
2023/04/27 01:36:51;;;;;;;33.97;24.17;;;-0.40;99.90;;;;;;5014063;28;20034;-75
2023/04/27 01:39:20;;;;;;;33.47;23.05;;;-0.40;99.90;;;;;;5011421;28;20084;-76
2023/04/27 01:41:47;;;;;;;28.00;22.42;;;-0.40;99.90;;;;;;5010693;28;20510;-76
2023/04/27 01:44:13;;;;;;;33.30;24.75;;;-0.40;99.90;;;;;;5020364;28;20051;-76
2023/04/27 01:46:40;;;;;;;30.42;23.85;;;-0.50;99.90;;;;;;5002490;28;20123;-75
2023/04/27 01:49:07;;;;;;;35.55;23.90;;;-0.40;99.90;;;;;;5003232;28;20148;-76
2023/04/27 01:51:34;;;;;;;29.27;23.75;;;-0.50;99.90;;;;;;5018151;28;20068;-75
2023/04/27 01:54:01;;;;;;;36.70;24.77;;;-0.50;99.90;;;;;;5012521;28;20613;-75
2023/04/27 01:56:27;;;;;;;35.95;25.52;;;-0.20;99.90;;;;;;4999377;28;20046;-75
2023/04/27 01:58:54;;;;;;;31.27;23.77;;;-0.20;99.90;;;;;;5005706;28;20045;-76
2023/04/27 02:01:21;;;;;;;32.97;25.33;;;-0.10;99.90;;;;;;4999629;28;20049;-75
2023/04/27 02:03:48;;;;;;;35.65;24.20;;;-0.20;99.90;;;;;;5002894;28;20038;-76
2023/04/27 02:06:15;;;;;;;40.13;26.25;;;-0.20;99.90;;;;;;5010543;28;20068;-76
2023/04/27 02:08:42;;;;;;;38.85;24.63;;;-0.30;99.90;;;;;;5017423;28;20037;-75
2023/04/27 02:11:08;;;;;;;34.30;22.13;;;-0.20;99.90;;;;;;5002610;28;20061;-76
2023/04/27 02:13:35;;;;;;;32.55;22.35;;;-0.20;99.90;;;;;;5009904;28;21306;-76
2023/04/27 02:16:03;;;;;;;37.17;23.98;;;-0.20;99.90;;;;;;5008701;28;20074;-75
2023/04/27 02:18:31;;;;;;;38.47;23.92;;;-0.20;99.90;;;;;;5014497;28;20041;-76
2023/04/27 02:20:57;;;;;;;36.35;24.05;;;-0.10;99.90;;;;;;5003292;28;20041;-76
2023/04/27 02:23:24;;;;;;;35.00;25.00;;;-0.10;99.90;;;;;;4994942;28;20052;-76
2023/04/27 02:25:51;;;;;;;32.97;25.20;;;0.00;99.90;;;;;;5012084;28;20045;-76
2023/04/27 02:28:17;;;;;;;38.40;24.30;;;0.00;99.90;;;;;;5012909;28;20136;-75
2023/04/27 02:30:45;;;;;;;38.33;25.38;;;0.20;99.90;;;;;;5017973;28;20119;-76
2023/04/27 02:33:11;;;;;;;34.88;24.27;;;0.20;99.90;;;;;;5000628;28;20045;-76
2023/04/27 02:35:38;;;;;;;42.85;23.48;;;0.20;99.90;;;;;;5005181;28;20061;-75
2023/04/27 02:38:05;;;;;;;32.58;23.48;;;0.20;99.90;;;;;;5016231;28;20045;-75
2023/04/27 02:40:35;;;;;;;31.27;22.90;;;0.20;99.90;;;;;;5008204;28;20045;-75
2023/04/27 02:43:05;;;;;;;27.95;22.45;;;0.30;99.90;;;;;;5015234;28;20052;-75
2023/04/27 02:45:35;;;;;;;34.92;23.50;;;0.30;99.90;;;;;;5003591;28;20138;-75
2023/04/27 02:48:04;;;;;;;33.95;23.33;;;0.40;99.90;;;;;;5002980;28;20042;-76
2023/04/27 02:50:33;;;;;;;32.10;23.95;;;0.40;99.90;;;;;;5012733;28;20123;-75
2023/04/27 02:53:00;;;;;;;27.92;23.83;;;0.30;99.90;;;;;;5009577;28;20064;-76
2023/04/27 02:55:28;;;;;;;33.65;24.85;;;0.40;99.90;;;;;;5017548;28;20041;-75
2023/04/27 02:57:55;;;;;;;33.53;25.15;;;0.40;99.90;;;;;;5018543;28;20041;-76
2023/04/27 03:00:21;;;;;;;33.58;25.23;;;0.50;99.90;;;;;;5005252;28;20054;-75
2023/04/27 03:02:48;;;;;;;33.65;26.08;;;0.30;99.90;;;;;;5017609;28;20038;-75
2023/04/27 03:05:16;;;;;;;37.42;27.00;;;0.40;99.90;;;;;;5022098;28;20045;-75
2023/04/27 03:07:43;;;;;;;28.35;23.80;;;0.40;99.90;;;;;;5006104;28;20052;-75
2023/04/27 03:10:10;;;;;;;28.95;23.75;;;0.60;99.90;;;;;;5012151;28;20045;-76
2023/04/27 03:12:36;;;;;;;33.15;23.73;;;0.70;99.90;;;;;;5018351;28;20041;-76
2023/04/27 03:15:03;;;;;;;35.45;26.48;;;0.60;99.90;;;;;;5016630;28;20044;-75
2023/04/27 03:17:30;;;;;;;33.42;25.83;;;0.60;99.90;;;;;;5012549;28;20051;-75
2023/04/27 03:19:57;;;;;;;36.33;24.90;;;0.60;99.90;;;;;;5017053;28;20036;-75
2023/04/27 03:22:23;;;;;;;36.45;25.27;;;0.50;99.90;;;;;;5020883;28;20042;-75
2023/04/27 03:24:51;;;;;;;33.83;26.10;;;0.60;99.90;;;;;;4997099;28;20050;-75
2023/04/27 03:27:17;;;;;;;28.58;25.35;;;0.40;99.90;;;;;;5024328;28;20036;-75
2023/04/27 03:29:45;;;;;;;34.33;26.63;;;0.30;99.90;;;;;;5022227;28;20145;-75
2023/04/27 03:32:11;;;;;;;36.25;26.83;;;0.20;99.90;;;;;;5020954;28;20045;-75
2023/04/27 03:34:38;;;;;;;37.08;26.85;;;0.30;99.90;;;;;;5009752;28;20100;-75
2023/04/27 03:37:05;;;;;;;36.63;27.65;;;0.20;99.90;;;;;;5013765;28;20073;-75
2023/04/27 03:39:35;;;;;;;35.92;27.23;;;0.10;99.90;;;;;;5010855;28;20043;-75
2023/04/27 03:42:02;;;;;;;38.70;27.60;;;-0.10;99.90;;;;;;5016732;28;20281;-75
2023/04/27 03:44:30;;;;;;;38.40;29.50;;;-0.10;99.90;;;;;;5014392;28;20057;-75
2023/04/27 03:46:57;;;;;;;35.08;27.35;;;-0.10;99.90;;;;;;5004809;28;20091;-76
2023/04/27 03:49:24;;;;;;;36.15;27.25;;;-0.20;99.90;;;;;;5025059;28;20548;-75
2023/04/27 03:51:51;;;;;;;42.47;31.10;;;-0.30;99.90;;;;;;5013936;28;20045;-76
2023/04/27 03:54:18;;;;;;;47.15;31.85;;;-0.40;99.90;;;;;;5003065;28;20041;-75
2023/04/27 03:56:45;;;;;;;44.22;31.30;;;-0.30;99.90;;;;;;5016972;28;20141;-76
2023/04/27 03:59:12;;;;;;;41.95;31.13;;;-0.40;99.90;;;;;;5013468;28;20099;-75
2023/04/27 04:01:45;;;;;;;42.17;29.77;;;-0.50;99.90;;;;;;4997578;28;20422;-76
2023/04/27 04:04:12;;;;;;;42.35;30.40;;;-0.40;99.90;;;;;;5017811;28;20252;-75
2023/04/27 04:06:41;;;;;;;42.70;30.35;;;-0.40;99.90;;;;;;5022922;28;20654;-75
2023/04/27 04:09:07;;;;;;;43.20;31.60;;;-0.50;99.90;;;;;;5017863;28;20276;-76
2023/04/27 04:11:34;;;;;;;37.28;30.02;;;-0.50;99.90;;;;;;5015982;28;20037;-75
2023/04/27 04:14:04;;;;;;;45.13;30.63;;;-0.60;99.90;;;;;;4999491;28;20045;-76
2023/04/27 04:16:32;;;;;;;45.25;33.40;;;-0.70;99.90;;;;;;4991260;28;20496;-75
2023/04/27 04:18:59;;;;;;;47.65;32.70;;;-0.70;99.90;;;;;;5010023;28;20038;-75
2023/04/27 04:21:25;;;;;;;45.20;32.55;;;-0.70;99.90;;;;;;5011511;28;20140;-76
2023/04/27 04:23:52;;;;;;;43.80;30.13;;;-0.80;99.90;;;;;;5022429;28;20051;-76
2023/04/27 04:26:19;;;;;;;44.10;32.17;;;-0.80;99.90;;;;;;5017052;28;20440;-76
2023/04/27 04:28:46;;;;;;;45.05;31.25;;;-0.80;99.90;;;;;;5016416;28;20034;-75
2023/04/27 04:31:14;;;;;;;54.00;33.90;;;-0.70;99.90;;;;;;5021127;28;20140;-75
2023/04/27 04:33:41;;;;;;;47.47;35.15;;;-0.80;99.90;;;;;;5022443;28;20053;-76
2023/04/27 04:36:08;;;;;;;49.95;36.10;;;-0.80;99.90;;;;;;5024817;28;20046;-75
2023/04/27 04:38:34;;;;;;;53.95;36.15;;;-0.70;99.90;;;;;;4993681;28;20041;-75
2023/04/27 04:41:01;;;;;;;53.75;35.97;;;-0.50;99.90;;;;;;5006186;28;20046;-75
2023/04/27 04:43:30;;;;;;;52.85;34.97;;;-0.50;99.90;;;;;;5006859;28;20045;-75
2023/04/27 04:45:57;;;;;;;53.53;33.88;;;-0.40;99.90;;;;;;5002942;28;20037;-75
2023/04/27 04:48:24;;;;;;;49.72;32.63;;;-0.20;99.90;;;;;;5002139;28;20076;-76
2023/04/27 04:50:51;;;;;;;47.83;33.28;;;-0.30;99.90;;;;;;5003227;28;20065;-76
2023/04/27 04:53:18;;;;;;;52.30;34.42;;;-0.50;99.90;;;;;;4995601;28;20047;-76
2023/04/27 04:55:45;;;;;;;47.20;33.95;;;-0.50;99.90;;;;;;5024996;28;20037;-75
2023/04/27 04:58:11;;;;;;;48.65;32.65;;;-0.50;99.90;;;;;;4998975;28;20456;-75
2023/04/27 05:00:38;;;;;;;46.40;32.60;;;-0.50;99.90;;;;;;5015291;28;20419;-76
2023/04/27 05:03:06;;;;;;;51.63;32.70;;;-0.50;99.90;;;;;;5008874;28;20069;-75
2023/04/27 05:05:33;;;;;;;48.60;33.35;;;-0.50;99.90;;;;;;5013601;28;20601;-76
2023/04/27 05:07:59;;;;;;;48.58;34.92;;;-0.30;99.90;;;;;;5018882;28;20681;-75
2023/04/27 05:10:26;;;;;;;46.88;32.97;;;-0.30;99.90;;;;;;5017489;28;20026;-76
2023/04/27 05:12:53;;;;;;;53.95;34.50;;;-0.40;99.90;;;;;;5021192;28;20048;-76
2023/04/27 05:15:20;;;;;;;45.72;31.75;;;-0.30;99.90;;;;;;4991330;28;20048;-76
2023/04/27 05:17:46;;;;;;;44.65;33.83;;;-0.20;99.90;;;;;;5013570;28;20412;-75
2023/04/27 05:20:13;;;;;;;43.67;32.83;;;-0.20;99.90;;;;;;5012311;28;20033;-75
2023/04/27 05:22:40;;;;;;;46.30;34.50;;;-0.10;99.90;;;;;;5014450;28;20167;-76
2023/04/27 05:25:07;;;;;;;46.42;34.97;;;-0.10;99.90;;;;;;5008966;28;20041;-76
2023/04/27 05:27:34;;;;;;;41.60;32.50;;;-0.20;99.90;;;;;;5009565;28;20581;-76
2023/04/27 05:30:01;;;;;;;43.92;31.38;;;-0.10;99.90;;;;;;4990824;28;20548;-76
2023/04/27 05:32:28;;;;;;;49.42;32.80;;;-0.10;99.90;;;;;;5012964;28;20053;-76
2023/04/27 05:34:55;;;;;;;42.85;31.90;;;0.00;99.90;;;;;;5021598;28;20073;-76
2023/04/27 05:37:22;;;;;;;46.60;32.13;;;0.10;99.90;;;;;;5021112;28;20044;-76
2023/04/27 05:39:48;;;;;;;44.63;31.63;;;0.20;99.90;;;;;;5011258;28;20435;-76
2023/04/27 05:42:15;;;;;;;48.03;32.20;;;0.30;99.90;;;;;;5016783;28;20124;-77
2023/04/27 05:44:42;;;;;;;37.67;30.85;;;0.40;99.90;;;;;;5012352;28;20077;-76
2023/04/27 05:47:08;;;;;;;37.92;30.73;;;0.50;99.90;;;;;;4999262;28;20042;-75
2023/04/27 05:49:35;;;;;;;39.45;30.50;;;0.60;99.90;;;;;;5002094;28;20033;-76
2023/04/27 05:52:03;;;;;;;44.42;30.95;;;0.70;99.90;;;;;;5004120;28;20049;-75
2023/04/27 05:54:29;;;;;;;42.10;30.25;;;0.90;99.90;;;;;;4994453;28;20617;-75
2023/04/27 05:56:56;;;;;;;40.90;30.38;;;1.00;99.90;;;;;;5015226;28;20041;-76
2023/04/27 05:59:23;;;;;;;43.53;30.55;;;1.10;99.90;;;;;;5024789;28;20079;-76
2023/04/27 06:01:49;;;;;;;44.55;32.78;;;1.30;99.90;;;;;;5018631;28;20038;-76
2023/04/27 06:04:16;;;;;;;40.90;28.58;;;1.40;99.90;;;;;;5011732;28;20060;-75
2023/04/27 06:06:43;;;;;;;40.65;29.13;;;1.40;99.90;;;;;;4997200;28;20042;-75
2023/04/27 06:09:10;;;;;;;39.65;27.00;;;1.50;99.90;;;;;;5007145;28;20072;-75
2023/04/27 06:11:37;;;;;;;42.00;29.77;;;1.60;99.90;;;;;;5014084;28;20069;-75
2023/04/27 06:14:04;;;;;;;42.90;28.13;;;1.70;99.90;;;;;;5008972;28;20045;-75
2023/04/27 06:16:30;;;;;;;34.72;28.73;;;1.90;99.90;;;;;;5017450;28;20099;-75
2023/04/27 06:18:57;;;;;;;33.88;27.60;;;2.00;99.90;;;;;;5016310;28;20403;-75
2023/04/27 06:21:24;;;;;;;33.28;26.80;;;2.20;99.90;;;;;;5001688;28;20040;-75
2023/04/27 06:23:50;;;;;;;35.70;25.52;;;2.40;99.90;;;;;;5003901;28;20487;-76
2023/04/27 06:26:17;;;;;;;32.67;25.17;;;2.60;99.90;;;;;;4999583;28;20037;-76
2023/04/27 06:28:44;;;;;;;33.10;23.55;;;2.90;99.90;;;;;;5016777;28;20057;-75
2023/04/27 06:31:11;;;;;;;40.47;24.13;;;3.40;99.90;;;;;;5000582;28;20584;-74
2023/04/27 06:33:37;;;;;;;33.55;30.13;;;3.90;99.90;;;;;;5024867;28;20038;-74
2023/04/27 06:36:04;;;;;;;47.10;37.15;;;4.50;99.90;;;;;;5014338;28;20831;-74
2023/04/27 06:38:31;;;;;;;48.90;43.70;;;5.00;99.90;;;;;;5004154;28;20042;-76
2023/04/27 06:40:58;;;;;;;38.75;35.10;;;5.70;99.90;;;;;;5020152;28;20051;-75
2023/04/27 06:43:24;;;;;;;35.63;32.55;;;6.30;99.90;;;;;;5021359;28;20073;-75
2023/04/27 06:45:51;;;;;;;33.47;30.63;;;6.60;99.90;;;;;;5022782;28;20066;-75
2023/04/27 06:48:18;;;;;;;32.53;29.95;;;7.00;99.90;;;;;;5016780;28;20038;-75
2023/04/27 06:50:45;;;;;;;35.20;32.35;;;7.00;99.90;;;;;;5017832;28;20037;-74
2023/04/27 06:53:12;;;;;;;31.42;29.20;;;6.90;99.90;;;;;;5026438;28;20050;-76
2023/04/27 06:55:39;;;;;;;31.48;28.77;;;6.20;99.90;;;;;;5002820;28;20037;-74
2023/04/27 06:58:10;;;;;;;33.85;30.48;;;6.20;99.90;;;;;;5022774;28;20100;-74
2023/04/27 07:00:38;;;;;;;32.22;30.05;;;6.50;99.90;;;;;;5017018;28;20049;-75
2023/04/27 07:03:05;;;;;;;32.45;29.90;;;6.70;99.90;;;;;;5021826;28;20042;-74
2023/04/27 07:05:32;;;;;;;33.00;30.58;;;7.10;99.90;;;;;;5001871;28;20224;-75
2023/04/27 07:07:59;;;;;;;33.72;31.40;;;7.50;99.90;;;;;;5007826;28;20213;-75
2023/04/27 07:10:31;;;;;;;35.92;33.42;;;7.80;99.90;;;;;;4998726;28;20120;-76
2023/04/27 07:12:58;;;;;;;36.85;33.95;;;7.50;99.90;;;;;;5016176;28;20045;-73
2023/04/27 07:15:25;;;;;;;35.00;32.80;;;7.70;99.90;;;;;;5021463;28;20071;-73
2023/04/27 07:17:55;;;;;;;40.35;37.55;;;7.40;99.90;;;;;;5004735;28;20042;-74
2023/04/27 07:20:22;;;;;;;34.80;32.47;;;7.20;99.90;;;;;;4999639;28;20041;-73
2023/04/27 07:22:49;;;;;;;35.00;32.40;;;7.70;99.90;;;;;;5007271;28;20045;-74
2023/04/27 07:25:16;;;;;;;34.33;32.03;;;7.90;99.90;;;;;;5017422;28;20033;-74
2023/04/27 07:27:44;;;;;;;36.65;34.00;;;8.30;99.90;;;;;;5017390;28;20037;-74
2023/04/27 07:30:12;;;;;;;36.97;34.22;;;9.00;99.90;;;;;;5013909;28;20049;-73
2023/04/27 07:32:43;;;;;;;35.95;33.67;;;9.30;99.90;;;;;;5009862;28;20132;-74
2023/04/27 07:35:09;;;;;;;37.30;34.97;;;9.50;99.90;;;;;;5001027;28;20073;-78
2023/04/27 07:37:37;;;;;;;36.95;34.72;;;9.50;99.90;;;;;;5013498;28;20120;-76
2023/04/27 07:40:09;;;;;;;36.35;34.20;;;9.60;99.90;;;;;;5017891;28;20057;-74
2023/04/27 07:42:38;;;;;;;37.10;34.75;;;9.60;99.90;;;;;;5022024;28;20063;-75
2023/04/27 07:45:06;;;;;;;37.40;34.80;;;9.50;99.90;;;;;;5003067;28;20536;-74
2023/04/27 07:47:33;;;;;;;38.45;36.15;;;8.90;99.90;;;;;;5012460;28;20037;-74
2023/04/27 07:49:59;;;;;;;38.58;35.50;;;8.80;99.90;;;;;;5013084;28;20050;-74
2023/04/27 07:52:26;;;;;;;38.63;35.90;;;8.90;99.90;;;;;;4998473;28;20076;-76
2023/04/27 07:54:53;;;;;;;37.95;35.35;;;8.90;99.90;;;;;;5009208;28;20057;-74
2023/04/27 07:57:19;;;;;;;36.90;34.30;;;9.20;99.90;;;;;;5005395;28;20588;-73
2023/04/27 07:59:46;;;;;;;37.83;35.33;;;9.50;99.90;;;;;;5002421;28;20033;-76
2023/04/27 08:02:13;;;;;;;39.10;36.60;;;10.10;99.90;;;;;;5003160;28;20661;-75
2023/04/27 08:04:46;;;;;;;40.90;38.03;;;10.20;99.90;;;;;;5024113;28;20056;-75
2023/04/27 08:07:15;;;;;;;40.10;37.38;;;10.10;99.90;;;;;;5011606;28;20052;-75
2023/04/27 08:09:43;;;;;;;40.08;37.38;;;10.20;99.90;;;;;;5019707;28;20042;-75
2023/04/27 08:12:10;;;;;;;36.55;34.25;;;10.40;99.90;;;;;;5021015;28;20048;-73
2023/04/27 08:14:37;;;;;;;41.67;38.90;;;9.50;99.90;;;;;;5011733;28;20049;-75
2023/04/27 08:17:03;;;;;;;39.78;36.92;;;8.40;99.90;;;;;;5019878;28;20065;-76
2023/04/27 08:19:30;;;;;;;37.30;34.58;;;8.40;99.90;;;;;;5015324;28;20710;-76
2023/04/27 08:21:57;;;;;;;42.88;39.75;;;9.00;99.90;;;;;;5016731;28;20128;-76
2023/04/27 08:24:23;;;;;;;40.42;37.63;;;9.70;99.90;;;;;;5012955;28;20038;-76
2023/04/27 08:26:50;;;;;;;41.33;38.42;;;10.40;99.90;;;;;;5004166;28;20124;-75
2023/04/27 08:29:17;;;;;;;39.55;37.03;;;10.80;99.90;;;;;;5018777;28;20123;-75
2023/04/27 08:31:54;;;;;;;40.50;37.83;;;11.20;99.90;;;;;;5008608;28;20045;-74
2023/04/27 08:34:23;;;;;;;43.95;39.65;;;11.60;99.90;;;;;;4998059;28;20042;-75
2023/04/27 08:36:49;;;;;;;40.10;37.40;;;11.20;99.90;;;;;;5019929;28;20036;-76
2023/04/27 08:39:17;;;;;;;40.55;37.95;;;11.60;99.90;;;;;;5007431;28;20136;-75
2023/04/27 08:41:43;;;;;;;41.80;38.85;;;11.80;99.90;;;;;;5014708;28;20042;-74
2023/04/27 08:44:10;;;;;;;41.75;39.05;;;12.20;99.90;;;;;;5025461;28;20045;-77
2023/04/27 08:46:37;;;;;;;41.42;38.42;;;11.80;99.90;;;;;;5022106;28;20124;-77
2023/04/27 08:49:06;;;;;;;41.45;38.70;;;11.70;99.90;;;;;;5018696;28;20037;-75
2023/04/27 08:51:33;;;;;;;42.83;39.85;;;12.30;99.90;;;;;;5022816;28;20042;-75
2023/04/27 08:54:00;;;;;;;40.22;37.72;;;12.60;99.90;;;;;;5019756;28;20284;-75
2023/04/27 08:56:28;;;;;;;40.88;37.80;;;11.80;99.90;;;;;;5005036;28;20136;-76
2023/04/27 08:58:56;;;;;;;41.90;39.00;;;11.40;99.90;;;;;;5025451;28;20037;-77
2023/04/27 09:01:25;;;;;;;40.22;37.35;;;10.90;99.90;;;;;;5022675;28;20049;-77
2023/04/27 09:03:56;;;;;;;41.10;38.30;;;10.80;99.90;;;;;;5003321;28;20044;-75
2023/04/27 09:06:34;;;;;;;39.60;36.88;;;11.00;99.90;;;;;;4992712;28;20719;-76
2023/04/27 09:09:02;;;;;;;41.63;38.72;;;11.00;99.90;;;;;;5020244;28;20045;-75
2023/04/27 09:11:34;;;;;;;40.70;38.00;;;10.60;99.90;;;;;;5024729;28;20124;-77
2023/04/27 09:14:03;;;;;;;42.88;39.67;;;11.20;99.90;;;;;;5015301;28;20049;-76
2023/04/27 09:16:30;;;;;;;42.25;39.55;;;11.80;99.90;;;;;;5010996;28;20148;-75
2023/04/27 09:18:58;;;;;;;45.58;42.63;;;11.80;99.90;;;;;;5022577;28;20061;-76
2023/04/27 09:21:26;;;;;;;43.85;40.97;;;12.30;99.90;;;;;;5000090;28;20625;-75
2023/04/27 09:23:55;;;;;;;42.38;39.42;;;12.80;99.90;;;;;;5013164;28;20191;-78
2023/04/27 09:26:24;;;;;;;41.88;39.20;;;13.00;99.90;;;;;;5010101;28;20099;-75
2023/04/27 09:28:53;;;;;;;44.50;41.80;;;12.90;99.90;;;;;;5013636;28;20029;-76
2023/04/27 09:31:20;;;;;;;44.63;41.45;;;12.40;99.90;;;;;;5023170;28;20127;-77
2023/04/27 09:33:54;;;;;;;43.28;40.53;;;12.50;99.90;;;;;;5006238;28;20071;-73
2023/04/27 09:36:21;;;;;;;42.70;40.10;;;11.70;99.90;;;;;;5020210;28;20041;-76
2023/04/27 09:38:50;;;;;;;49.25;45.90;;;11.40;99.90;;;;;;5012553;28;20045;-77
2023/04/27 09:41:17;;;;;;;50.13;46.97;;;11.00;99.90;;;;;;5010959;28;20274;-73
2023/04/27 09:43:45;;;;;;;46.40;43.30;;;10.80;99.90;;;;;;5001129;28;20041;-77
2023/04/27 09:46:13;;;;;;;49.53;46.50;;;11.40;99.90;;;;;;4999425;28;20049;-78
2023/04/27 09:48:40;;;;;;;46.58;43.40;;;12.10;99.90;;;;;;5007787;28;20033;-73
2023/04/27 09:51:07;;;;;;;49.20;46.10;;;12.60;99.90;;;;;;5000317;28;20042;-75
2023/04/27 09:53:57;;;;;;;47.90;44.88;;;12.40;99.90;;;;;;5009524;28;20139;-77
2023/04/27 09:56:51;;;;;;;48.70;45.67;;;12.90;99.90;;;;;;5013056;28;20064;-74
2023/04/27 09:59:51;;;;;;;48.72;45.75;;;12.00;99.90;;;;;;5009714;28;20057;-73
2023/04/27 10:02:20;;;;;;;48.08;44.88;;;11.50;99.90;;;;;;4986195;28;20042;-74
2023/04/27 10:05:03;;;;;;;49.58;46.55;;;11.70;99.90;;;;;;5022730;28;20047;-75
2023/04/27 10:07:31;;;;;;;50.72;47.70;;;11.60;99.90;;;;;;5013603;28;20231;-74
2023/04/27 10:10:01;;;;;;;48.67;45.72;;;12.10;99.90;;;;;;5013214;28;20132;-75
2023/04/27 10:12:35;;;;;;;49.50;46.70;;;12.50;99.90;;;;;;5007970;28;20045;-74
2023/04/27 10:15:15;;;;;;;46.65;43.85;;;12.20;99.90;;;;;;5013673;28;20098;-75
2023/04/27 10:17:52;;;;;;;46.85;44.00;;;12.10;99.90;;;;;;5015856;28;20147;-74
2023/04/27 10:20:29;;;;;;;46.13;43.05;;;12.10;99.90;;;;;;5020672;28;20165;-74
2023/04/27 10:22:56;;;;;;;46.67;43.58;;;11.90;99.90;;;;;;5009753;28;20052;-74
2023/04/27 10:25:26;;;;;;;47.05;44.25;;;12.40;99.90;;;;;;5005494;28;20133;-75
2023/04/27 10:27:54;;;;;;;46.92;44.13;;;12.50;99.90;;;;;;5019849;28;20051;-75
2023/04/27 10:30:24;;;;;;;48.95;46.20;;;12.60;99.90;;;;;;5029343;28;20047;-75
2023/04/27 10:32:53;;;;;;;50.95;48.13;;;12.70;99.90;;;;;;5008321;28;20037;-74
2023/04/27 10:35:41;;;;;;;49.70;46.90;;;12.60;99.90;;;;;;5019503;28;20042;-75
2023/04/27 10:38:09;;;;;;;49.60;46.67;;;12.50;99.90;;;;;;5015318;28;20044;-74
2023/04/27 10:40:37;;;;;;;49.53;46.63;;;12.70;99.90;;;;;;5009795;28;20295;-75
2023/04/27 10:43:13;;;;;;;48.45;45.45;;;12.90;99.90;;;;;;5021105;28;20108;-75
2023/04/27 10:45:41;;;;;;;49.83;46.67;;;13.10;99.90;;;;;;5000928;28;20037;-74
2023/04/27 10:48:08;;;;;;;48.58;45.78;;;13.50;99.90;;;;;;5019406;28;20112;-75
2023/04/27 10:50:35;;;;;;;43.28;40.38;;;13.90;99.90;;;;;;5025792;28;20115;-75
2023/04/27 10:53:05;;;;;;;43.80;40.70;;;14.20;99.90;;;;;;5019211;28;20115;-76
2023/04/27 10:55:33;;;;;;;44.42;41.58;;;14.10;99.90;;;;;;5011266;28;20067;-74
2023/04/27 10:58:01;;;;;;;43.03;40.22;;;13.90;99.90;;;;;;5016234;28;20399;-75
2023/04/27 11:00:32;;;;;;;45.03;41.97;;;14.20;99.90;;;;;;5014722;28;20055;-73
2023/04/27 11:03:15;;;;;;;44.50;41.55;;;14.30;99.80;;;;;;5021232;28;20515;-74
2023/04/27 11:05:43;;;;;;;43.15;40.38;;;13.90;99.90;;;;;;5010542;28;20084;-73
2023/04/27 11:08:16;;;;;;;45.78;42.78;;;13.90;99.90;;;;;;5018252;28;20099;-75
2023/04/27 11:10:50;;;;;;;49.67;46.53;;;13.80;98.10;;;;;;5005390;28;20042;-74
2023/04/27 11:13:22;;;;;;;49.13;46.08;;;13.40;98.00;;;;;;5028837;28;20495;-73
2023/04/27 11:15:53;;;;;;;49.90;46.70;;;13.30;99.30;;;;;;5016039;28;21626;-73
2023/04/27 11:18:21;;;;;;;48.88;45.67;;;13.50;99.90;;;;;;5008271;28;20079;-74
2023/04/27 11:20:53;;;;;;;47.10;44.20;;;13.60;99.90;;;;;;5002517;28;20430;-74
2023/04/27 11:23:35;;;;;;;50.50;47.33;;;13.80;99.90;;;;;;5019701;28;20088;-75
2023/04/27 11:26:11;;;;;;;49.95;46.95;;;13.90;99.20;;;;;;5006484;28;20104;-74
2023/04/27 11:28:38;;;;;;;48.10;45.10;;;13.80;98.40;;;;;;5012160;28;20097;-75
2023/04/27 11:31:05;;;;;;;50.20;47.13;;;13.40;99.70;;;;;;5010427;28;20384;-75
2023/04/27 11:33:32;;;;;;;48.80;45.72;;;13.90;98.90;;;;;;5032127;28;20549;-75
2023/04/27 11:35:59;;;;;;;50.25;47.03;;;14.00;99.90;;;;;;5012180;28;20054;-75
2023/04/27 11:38:32;;;;;;;49.13;46.03;;;14.20;98.80;;;;;;5017763;28;20048;-74
2023/04/27 11:41:04;;;;;;;53.58;50.03;;;14.20;98.50;;;;;;5018699;28;20049;-73
2023/04/27 11:43:32;;;;;;;51.65;48.40;;;12.60;97.50;;;;;;5028485;28;20278;-74
2023/04/27 11:46:03;;;;;;;52.25;49.08;;;12.20;99.90;;;;;;4999545;28;20100;-74
2023/04/27 11:48:30;;;;;;;51.58;48.38;;;12.50;98.70;;;;;;5020671;28;20041;-74
2023/04/27 11:50:59;;;;;;;51.88;48.42;;;12.90;99.40;;;;;;5001266;22;20042;-74
2023/04/27 11:53:34;;;;;;;51.28;48.10;;;13.10;99.20;;;;;;4966436;28;20094;-71
2023/04/27 11:56:04;;;;;;;48.70;45.80;;;13.40;99.90;;;;;;4959878;28;20065;-74
2023/04/27 11:58:35;;;;;;;48.35;45.50;;;13.50;99.30;;;;;;4967453;28;20050;-72
2023/04/27 12:01:03;;;;;;;47.38;44.28;;;13.60;99.90;;;;;;4958901;28;20162;-73
2023/04/27 12:03:30;;;;;;;47.38;44.55;;;13.40;99.90;;;;;;4962763;28;20515;-74
2023/04/27 12:05:58;;;;;;;46.67;43.38;;;13.50;99.70;;;;;;4962104;28;20039;-72
2023/04/27 12:08:44;;;;;;;47.90;44.60;;;13.70;99.00;;;;;;4960789;28;20049;-70
2023/04/27 12:11:11;;;;;;;48.42;45.33;;;13.40;99.90;;;;;;4944903;28;21460;-73
2023/04/27 12:13:38;;;;;;;47.65;44.55;;;13.40;99.90;;;;;;4964794;28;20051;-73
2023/04/27 12:16:05;;;;;;;47.67;44.70;;;13.50;99.50;;;;;;4958289;28;20045;-71
2023/04/27 12:18:32;;;;;;;47.38;44.03;;;13.60;98.60;;;;;;4964049;28;20053;-74
2023/04/27 12:20:59;;;;;;;46.72;43.63;;;13.70;98.50;;;;;;4956751;28;20042;-71
2023/04/27 12:23:29;;;;;;;47.28;44.25;;;13.80;98.10;;;;;;4962872;28;20208;-72
2023/04/27 12:25:55;;;;;;;46.38;43.20;;;14.10;99.90;;;;;;4958114;28;20069;-72
2023/04/27 12:28:22;;;;;;;48.22;44.97;;;14.40;98.00;;;;;;4959469;28;20056;-73
2023/04/27 12:30:49;;;;;;;46.58;43.58;;;14.40;99.90;;;;;;4957344;28;20050;-71
2023/04/27 12:33:16;;;;;;;46.25;43.30;;;14.40;99.30;;;;;;4960417;28;20038;-71
2023/04/27 12:35:43;;;;;;;48.80;45.75;;;14.60;98.70;;;;;;4958766;28;20152;-70